Shell River, Minnesota
Current Conditions -  °F | °C
As of 8:53 PM on Wednesday 22 Oct 2014 (Local Time) from KPKD Reporting Station
Light Rain Light Rain  
Wind Chill: 54°   Ceiling: 6000
Heat Index: 54°   Visibility: 10mi
Dew Point: 47°   Wind: 10mph
Humidity: 77%   Direction: 170°S
Pressure: 29.93"   Gusts: NA
Location:  46.7591°N, 94.9748°W
Report Text: KPKD 230153Z AUTO 17009KT 10SM -RA SCT028 BKN060 OVC080 12/08 A2993 RMK AO2 RAB10 SLP141 P0000 T01220083 TSNO
Loading
Personal Weather Stations






























Interactive Weather Map
Tropical Storm Tracking
New forecast layout! Learn more

10-Day Weather Forecast

Advertisements
Track Severe Weather on mobile